Aviation Digital Data Service (ADDS)

Output produced by METARs form (0549 UTC 30 March 2015)
found at http://aviationweather.gov/adds/metars/
 
KIAG 300520Z 3006/3106 21015G25KT P6SM VCSH OVC050 
     TEMPO 3006/3008 6SM -SHRASN OVC025 
     FM300800 23018G28KT P6SM OVC025 
     FM301300 26020G30KT P6SM OVC025 
     FM301700 27021G33KT 6SM -SHRASN OVC035 
     FM302100 27016G24KT P6SM BKN040 
     FM310000 26010KT P6SM SCT040